createdAt,value
2023-02-01T06:49:42.228Z,5.15
2023-02-01T06:52:43.924Z,5.78
2023-02-01T06:56:02.524Z,6.40
2023-02-01T06:59:05.761Z,5.90
2023-02-01T07:02:12.496Z,5.78
2023-02-01T07:05:14.540Z,5.18
2023-02-01T07:08:16.395Z,5.55
2023-02-01T07:11:19.961Z,6.07
2023-02-01T07:14:21.913Z,5.35
2023-02-01T07:17:24.746Z,5.55
2023-02-01T07:20:27.083Z,5.20
2023-02-01T07:23:29.309Z,6.18
2023-02-01T07:26:31.738Z,5.78
2023-02-01T07:29:33.962Z,5.82
2023-02-01T07:32:35.875Z,5.45
2023-02-01T07:35:37.759Z,5.20
2023-02-01T07:38:39.942Z,5.10
2023-02-01T07:41:42.046Z,5.38
2023-02-01T07:44:43.950Z,4.93
2023-02-01T07:47:45.809Z,5.25
2023-02-01T07:50:47.792Z,4.90
2023-02-01T07:53:49.930Z,5.80
2023-02-01T07:56:51.802Z,5.78
2023-02-01T08:00:13.684Z,5.53
2023-02-01T08:03:17.387Z,4.35
2023-02-01T08:06:21.393Z,5.28
2023-02-01T08:09:23.172Z,4.45
2023-02-01T08:12:26.449Z,4.30
2023-02-01T08:15:29.442Z,4.70
2023-02-01T08:18:31.679Z,4.20
2023-02-01T08:21:40.605Z,4.57
2023-02-01T08:24:42.755Z,3.80
2023-02-01T08:27:44.970Z,4.97
2023-02-01T08:30:46.793Z,4.07
2023-02-01T08:33:53.424Z,4.47
2023-02-01T08:37:02.361Z,4.85
2023-02-01T08:40:05.530Z,4.72
2023-02-01T08:43:07.415Z,5.72
2023-02-01T08:46:10.140Z,3.70
2023-02-01T08:49:11.868Z,4.53
2023-02-01T08:52:16.206Z,4.03
2023-02-01T08:55:18.976Z,4.20
2023-02-01T08:58:22.652Z,4.38
2023-02-01T09:01:26.174Z,3.40
2023-02-01T09:04:30.942Z,4.88
2023-02-01T09:10:43.999Z,4.22
2023-02-01T09:13:46.889Z,4.53
2023-02-01T09:16:48.724Z,3.25
2023-02-01T09:19:50.906Z,3.67
2023-02-01T09:22:54.293Z,3.40
2023-02-01T09:26:00.997Z,3.22
2023-02-01T09:29:04.447Z,4.40
2023-02-01T09:32:07.565Z,3.25
2023-02-01T09:35:09.693Z,4.38
2023-02-01T09:38:11.612Z,3.72
2023-02-01T09:41:40.821Z,3.90
2023-02-01T09:45:18.466Z,3.17
2023-02-01T09:48:25.799Z,3.67
2023-02-01T09:51:33.509Z,2.70
2023-02-01T09:54:47.149Z,3.35
2023-02-01T09:57:59.477Z,3.50
2023-02-01T10:01:04.038Z,3.00
2023-02-01T10:04:13.214Z,3.70
2023-02-01T10:07:28.266Z,4.82
2023-02-01T10:10:41.741Z,3.58
2023-02-01T10:14:12.525Z,3.55
2023-02-01T10:17:57.978Z,3.70
2023-02-01T10:21:27.993Z,3.60
2023-02-01T10:25:08.471Z,4.03
2023-02-01T10:28:19.370Z,4.20
2023-02-01T10:31:26.243Z,2.63
2023-02-01T10:34:32.642Z,3.60
2023-02-01T10:37:37.080Z,3.97
2023-02-01T10:40:40.662Z,2.60
2023-02-01T10:43:44.517Z,3.28
2023-02-01T10:46:46.457Z,3.50
2023-02-01T10:50:16.663Z,3.92
2023-02-01T10:53:25.566Z,3.63
2023-02-01T10:56:29.700Z,3.55
2023-02-01T10:59:34.552Z,3.83
2023-02-01T11:02:37.917Z,3.38
2023-02-01T11:05:48.905Z,3.10
2023-02-01T11:08:55.350Z,3.47
2023-02-01T11:12:00.079Z,3.35
2023-02-01T11:15:24.309Z,4.07
2023-02-01T11:18:30.071Z,3.83
2023-02-01T11:21:32.901Z,3.78
2023-02-01T11:24:39.324Z,2.92
2023-02-01T11:27:53.029Z,3.08
2023-02-01T11:30:57.995Z,2.72
2023-02-01T11:34:10.136Z,3.40
2023-02-01T11:37:35.752Z,3.00
2023-02-01T11:40:39.700Z,3.05
2023-02-01T11:43:59.527Z,3.78
2023-02-01T11:47:24.781Z,2.97
2023-02-01T11:50:49.825Z,3.72
2023-02-01T11:54:16.139Z,3.10
2023-02-01T11:57:38.473Z,3.92
2023-02-01T12:01:08.572Z,3.88
2023-02-01T12:04:41.699Z,3.83
2023-02-01T12:08:08.107Z,4.03
2023-02-01T12:11:30.818Z,2.92
2023-02-01T12:14:47.662Z,3.30
2023-02-01T12:18:04.481Z,3.80
2023-02-01T12:21:42.310Z,3.40
2023-02-01T12:25:23.987Z,3.80
2023-02-01T12:28:56.343Z,4.22
2023-02-01T12:32:21.870Z,4.00
2023-02-01T12:35:51.187Z,3.30
2023-02-01T12:39:15.841Z,4.10
2023-02-01T12:42:44.774Z,4.32
2023-02-01T12:45:53.257Z,4.05
2023-02-01T12:49:02.439Z,3.80
2023-02-01T12:52:11.757Z,3.90
2023-02-01T12:55:39.421Z,3.63
2023-02-01T12:58:51.174Z,3.22
2023-02-01T13:02:00.178Z,3.15
2023-02-01T13:05:25.077Z,4.53
2023-02-01T13:08:39.594Z,3.40
2023-02-01T13:11:46.049Z,3.25
2023-02-01T13:14:54.307Z,3.47
2023-02-01T13:18:01.291Z,2.97
2023-02-01T13:21:08.984Z,3.53
2023-02-01T13:24:34.400Z,3.72
2023-02-01T13:27:36.115Z,3.67
2023-02-01T13:30:53.221Z,4.32
2023-02-01T13:34:34.932Z,4.60
2023-02-01T13:38:00.852Z,3.67
2023-02-01T13:41:27.890Z,4.05
2023-02-01T13:44:35.111Z,3.08
2023-02-01T13:47:41.886Z,3.83
2023-02-01T13:50:43.595Z,4.05
2023-02-01T13:53:48.873Z,4.18
2023-02-01T13:56:50.782Z,3.42
2023-02-01T13:59:53.835Z,4.18
2023-02-01T14:03:09.752Z,4.22
2023-02-01T14:06:31.405Z,3.92
2023-02-01T14:09:37.995Z,4.05
2023-02-01T14:12:49.484Z,3.95
2023-02-01T14:16:07.294Z,4.18
2023-02-01T14:19:30.007Z,3.70
2023-02-01T14:22:35.179Z,4.10
2023-02-01T14:29:00.600Z,3.97
2023-02-01T14:32:20.802Z,3.47
2023-02-01T14:35:26.982Z,4.10
2023-02-01T14:38:32.329Z,3.83
2023-02-01T14:41:35.638Z,4.07
2023-02-01T14:44:38.076Z,4.13
2023-02-01T14:47:40.550Z,3.63
2023-02-01T14:50:48.492Z,4.10
2023-02-01T14:53:52.115Z,3.30
2023-02-01T14:56:55.238Z,3.80
2023-02-01T15:00:17.432Z,3.40
2023-02-01T15:03:45.422Z,3.17
2023-02-01T15:06:53.252Z,2.95
2023-02-01T15:09:58.949Z,3.30
2023-02-01T15:13:00.958Z,4.53
2023-02-01T15:16:14.103Z,3.45
2023-02-01T15:19:15.941Z,3.35
2023-02-01T15:22:20.376Z,3.35
2023-02-01T15:25:26.650Z,3.60
2023-02-01T15:28:28.503Z,3.22
2023-02-01T15:31:48.849Z,3.58
2023-02-01T15:34:51.230Z,3.53
2023-02-01T15:37:53.093Z,3.90
2023-02-01T15:41:15.456Z,4.32
2023-02-01T15:44:28.668Z,4.15
2023-02-01T15:47:32.770Z,3.72
2023-02-01T15:50:34.580Z,4.68
2023-02-01T15:53:36.315Z,3.42
2023-02-01T15:56:40.616Z,4.15
2023-02-01T15:59:45.410Z,2.83
2023-02-01T16:03:05.617Z,3.63
2023-02-01T16:06:11.204Z,3.10
2023-02-01T16:09:15.642Z,3.70
2023-02-01T16:12:29.331Z,3.35
2023-02-01T16:15:32.035Z,4.03
2023-02-01T16:18:33.909Z,3.60
2023-02-01T16:21:35.854Z,4.78
2023-02-01T16:24:37.606Z,4.40
2023-02-01T16:27:39.314Z,4.18
2023-02-01T16:30:41.067Z,3.25
2023-02-01T16:33:42.777Z,3.60
2023-02-01T16:36:52.534Z,3.53
2023-02-01T16:39:54.259Z,3.30
2023-02-01T16:42:56.423Z,4.13
2023-02-01T16:46:03.741Z,4.18
2023-02-01T16:49:06.464Z,3.10
2023-02-01T16:52:15.544Z,3.53
2023-02-01T16:55:19.637Z,3.30
2023-02-01T16:58:22.467Z,3.28
